sensor_id;sensor_type;location;lat;lon;timestamp;P1;durP1;ratioP1;P2;durP2;ratioP2
51614;SDS011;37695;52.960;6.188;2022-07-18T00:00:58;5.90;;;3.70;;
51614;SDS011;37695;52.960;6.188;2022-07-18T00:03:24;5.45;;;3.80;;
51614;SDS011;37695;52.960;6.188;2022-07-18T00:05:50;4.75;;;3.38;;
51614;SDS011;37695;52.960;6.188;2022-07-18T00:08:15;5.68;;;3.47;;
51614;SDS011;37695;52.960;6.188;2022-07-18T00:10:41;5.40;;;3.75;;
51614;SDS011;37695;52.960;6.188;2022-07-18T00:13:07;5.47;;;3.40;;
51614;SDS011;37695;52.960;6.188;2022-07-18T00:15:35;6.35;;;4.15;;
51614;SDS011;37695;52.960;6.188;2022-07-18T00:18:01;5.43;;;3.67;;
51614;SDS011;37695;52.960;6.188;2022-07-18T00:20:26;5.13;;;3.30;;
51614;SDS011;37695;52.960;6.188;2022-07-18T00:22:52;5.68;;;3.50;;
51614;SDS011;37695;52.960;6.188;2022-07-18T00:25:18;5.60;;;3.85;;
51614;SDS011;37695;52.960;6.188;2022-07-18T00:27:43;5.93;;;3.65;;
51614;SDS011;37695;52.960;6.188;2022-07-18T00:30:09;7.05;;;3.50;;
51614;SDS011;37695;52.960;6.188;2022-07-18T00:32:35;6.75;;;3.97;;
51614;SDS011;37695;52.960;6.188;2022-07-18T00:35:01;5.57;;;3.47;;
51614;SDS011;37695;52.960;6.188;2022-07-18T00:37:26;5.50;;;3.70;;
51614;SDS011;37695;52.960;6.188;2022-07-18T00:39:52;5.95;;;3.80;;
51614;SDS011;37695;52.960;6.188;2022-07-18T00:42:17;5.10;;;3.38;;
51614;SDS011;37695;52.960;6.188;2022-07-18T00:44:44;5.85;;;3.30;;
51614;SDS011;37695;52.960;6.188;2022-07-18T00:47:11;4.90;;;3.20;;
51614;SDS011;37695;52.960;6.188;2022-07-18T00:49:36;5.40;;;3.30;;
51614;SDS011;37695;52.960;6.188;2022-07-18T00:52:02;6.32;;;4.00;;
51614;SDS011;37695;52.960;6.188;2022-07-18T00:54:28;5.72;;;3.40;;
51614;SDS011;37695;52.960;6.188;2022-07-18T00:56:56;5.40;;;3.45;;
51614;SDS011;37695;52.960;6.188;2022-07-18T00:59:22;5.22;;;3.47;;
51614;SDS011;37695;52.960;6.188;2022-07-18T01:01:47;6.10;;;3.50;;
51614;SDS011;37695;52.960;6.188;2022-07-18T01:04:20;5.43;;;3.65;;
51614;SDS011;37695;52.960;6.188;2022-07-18T01:06:48;6.07;;;3.45;;
51614;SDS011;37695;52.960;6.188;2022-07-18T01:09:15;5.32;;;3.25;;
51614;SDS011;37695;52.960;6.188;2022-07-18T01:11:43;4.97;;;3.13;;
51614;SDS011;37695;52.960;6.188;2022-07-18T01:14:10;5.18;;;3.35;;
51614;SDS011;37695;52.960;6.188;2022-07-18T01:16:35;6.50;;;3.55;;
51614;SDS011;37695;52.960;6.188;2022-07-18T01:19:02;5.72;;;3.08;;
51614;SDS011;37695;52.960;6.188;2022-07-18T01:21:28;4.82;;;3.40;;
51614;SDS011;37695;52.960;6.188;2022-07-18T01:23:54;4.90;;;3.08;;
51614;SDS011;37695;52.960;6.188;2022-07-18T01:26:19;6.05;;;3.30;;
51614;SDS011;37695;52.960;6.188;2022-07-18T01:28:46;5.00;;;3.35;;
51614;SDS011;37695;52.960;6.188;2022-07-18T01:31:12;6.55;;;3.58;;
51614;SDS011;37695;52.960;6.188;2022-07-18T01:33:38;8.57;;;3.65;;
51614;SDS011;37695;52.960;6.188;2022-07-18T01:36:04;5.90;;;3.67;;
51614;SDS011;37695;52.960;6.188;2022-07-18T01:38:32;5.32;;;3.28;;
51614;SDS011;37695;52.960;6.188;2022-07-18T01:40:58;5.40;;;3.33;;
51614;SDS011;37695;52.960;6.188;2022-07-18T01:43:25;5.35;;;3.40;;
51614;SDS011;37695;52.960;6.188;2022-07-18T01:45:51;5.30;;;3.70;;
51614;SDS011;37695;52.960;6.188;2022-07-18T01:48:18;5.25;;;3.60;;
51614;SDS011;37695;52.960;6.188;2022-07-18T01:50:44;4.70;;;3.28;;
51614;SDS011;37695;52.960;6.188;2022-07-18T01:53:10;5.38;;;3.60;;
51614;SDS011;37695;52.960;6.188;2022-07-18T01:55:36;5.82;;;3.83;;
51614;SDS011;37695;52.960;6.188;2022-07-18T01:58:02;6.15;;;3.88;;
51614;SDS011;37695;52.960;6.188;2022-07-18T02:00:27;6.97;;;3.55;;
51614;SDS011;37695;52.960;6.188;2022-07-18T02:02:53;5.80;;;4.20;;
51614;SDS011;37695;52.960;6.188;2022-07-18T02:05:19;6.63;;;4.60;;
51614;SDS011;37695;52.960;6.188;2022-07-18T02:07:44;6.68;;;4.45;;
51614;SDS011;37695;52.960;6.188;2022-07-18T02:10:11;7.07;;;3.80;;
51614;SDS011;37695;52.960;6.188;2022-07-18T02:12:40;6.75;;;3.83;;
51614;SDS011;37695;52.960;6.188;2022-07-18T02:15:06;5.57;;;3.63;;
51614;SDS011;37695;52.960;6.188;2022-07-18T02:17:34;5.05;;;3.47;;
51614;SDS011;37695;52.960;6.188;2022-07-18T02:20:00;5.47;;;3.53;;
51614;SDS011;37695;52.960;6.188;2022-07-18T02:22:26;5.72;;;3.58;;
51614;SDS011;37695;52.960;6.188;2022-07-18T02:24:52;6.20;;;3.92;;
51614;SDS011;37695;52.960;6.188;2022-07-18T02:27:18;5.10;;;3.70;;
51614;SDS011;37695;52.960;6.188;2022-07-18T02:29:44;6.75;;;3.90;;
51614;SDS011;37695;52.960;6.188;2022-07-18T02:32:10;6.00;;;3.78;;
51614;SDS011;37695;52.960;6.188;2022-07-18T02:34:36;6.22;;;3.97;;
51614;SDS011;37695;52.960;6.188;2022-07-18T02:37:02;6.18;;;3.90;;
51614;SDS011;37695;52.960;6.188;2022-07-18T02:39:28;6.57;;;4.47;;
51614;SDS011;37695;52.960;6.188;2022-07-18T02:41:54;6.70;;;4.65;;
51614;SDS011;37695;52.960;6.188;2022-07-18T02:44:20;6.90;;;4.40;;
51614;SDS011;37695;52.960;6.188;2022-07-18T02:46:45;5.88;;;4.00;;
51614;SDS011;37695;52.960;6.188;2022-07-18T02:49:11;6.40;;;3.90;;
51614;SDS011;37695;52.960;6.188;2022-07-18T02:51:51;8.80;;;4.75;;
51614;SDS011;37695;52.960;6.188;2022-07-18T02:54:21;7.18;;;4.45;;
51614;SDS011;37695;52.960;6.188;2022-07-18T02:56:48;5.88;;;3.97;;
51614;SDS011;37695;52.960;6.188;2022-07-18T02:59:13;7.28;;;4.50;;
51614;SDS011;37695;52.960;6.188;2022-07-18T03:01:39;8.07;;;4.43;;
51614;SDS011;37695;52.960;6.188;2022-07-18T03:04:05;7.25;;;4.40;;
51614;SDS011;37695;52.960;6.188;2022-07-18T03:06:30;6.22;;;4.80;;
51614;SDS011;37695;52.960;6.188;2022-07-18T03:08:56;6.25;;;4.15;;
51614;SDS011;37695;52.960;6.188;2022-07-18T03:11:21;6.03;;;4.20;;
51614;SDS011;37695;52.960;6.188;2022-07-18T03:13:47;6.10;;;4.00;;
51614;SDS011;37695;52.960;6.188;2022-07-18T03:16:12;6.65;;;4.28;;
51614;SDS011;37695;52.960;6.188;2022-07-18T03:18:38;6.57;;;4.65;;
51614;SDS011;37695;52.960;6.188;2022-07-18T03:21:03;7.15;;;5.10;;
51614;SDS011;37695;52.960;6.188;2022-07-18T03:23:29;6.95;;;4.35;;
51614;SDS011;37695;52.960;6.188;2022-07-18T03:25:55;6.97;;;4.53;;
51614;SDS011;37695;52.960;6.188;2022-07-18T03:28:20;6.70;;;4.65;;
51614;SDS011;37695;52.960;6.188;2022-07-18T03:30:46;7.80;;;4.95;;
51614;SDS011;37695;52.960;6.188;2022-07-18T03:33:11;6.85;;;4.63;;
51614;SDS011;37695;52.960;6.188;2022-07-18T03:35:37;7.65;;;4.90;;
51614;SDS011;37695;52.960;6.188;2022-07-18T03:38:02;7.50;;;4.75;;
51614;SDS011;37695;52.960;6.188;2022-07-18T03:40:28;7.00;;;4.97;;
51614;SDS011;37695;52.960;6.188;2022-07-18T03:42:54;7.68;;;5.32;;
51614;SDS011;37695;52.960;6.188;2022-07-18T03:45:19;8.35;;;5.25;;
51614;SDS011;37695;52.960;6.188;2022-07-18T03:47:45;7.55;;;5.40;;
51614;SDS011;37695;52.960;6.188;2022-07-18T03:50:11;8.32;;;5.50;;
51614;SDS011;37695;52.960;6.188;2022-07-18T03:52:36;7.18;;;5.40;;
51614;SDS011;37695;52.960;6.188;2022-07-18T03:55:02;7.10;;;4.95;;
51614;SDS011;37695;52.960;6.188;2022-07-18T03:57:28;7.07;;;5.43;;
51614;SDS011;37695;52.960;6.188;2022-07-18T03:59:54;7.50;;;5.07;;
51614;SDS011;37695;52.960;6.188;2022-07-18T04:02:19;7.82;;;5.32;;
51614;SDS011;37695;52.960;6.188;2022-07-18T04:04:45;7.65;;;5.18;;
51614;SDS011;37695;52.960;6.188;2022-07-18T04:07:10;7.13;;;5.00;;
51614;SDS011;37695;52.960;6.188;2022-07-18T04:09:36;8.43;;;6.13;;
51614;SDS011;37695;52.960;6.188;2022-07-18T04:12:01;6.88;;;4.85;;
51614;SDS011;37695;52.960;6.188;2022-07-18T04:14:27;6.90;;;5.13;;
51614;SDS011;37695;52.960;6.188;2022-07-18T04:16:53;7.53;;;5.75;;
51614;SDS011;37695;52.960;6.188;2022-07-18T04:19:19;7.20;;;5.07;;
51614;SDS011;37695;52.960;6.188;2022-07-18T04:21:45;7.40;;;5.53;;
51614;SDS011;37695;52.960;6.188;2022-07-18T04:24:10;8.07;;;5.68;;
51614;SDS011;37695;52.960;6.188;2022-07-18T04:26:36;7.47;;;5.70;;
51614;SDS011;37695;52.960;6.188;2022-07-18T04:29:02;8.50;;;5.55;;
51614;SDS011;37695;52.960;6.188;2022-07-18T04:31:28;7.25;;;4.80;;
51614;SDS011;37695;52.960;6.188;2022-07-18T04:33:54;8.35;;;5.00;;
51614;SDS011;37695;52.960;6.188;2022-07-18T04:36:20;7.38;;;4.97;;
51614;SDS011;37695;52.960;6.188;2022-07-18T04:38:45;7.40;;;5.00;;
51614;SDS011;37695;52.960;6.188;2022-07-18T04:41:11;9.45;;;5.30;;
51614;SDS011;37695;52.960;6.188;2022-07-18T04:43:37;7.60;;;5.00;;
51614;SDS011;37695;52.960;6.188;2022-07-18T04:46:02;7.72;;;5.05;;
51614;SDS011;37695;52.960;6.188;2022-07-18T04:48:28;8.25;;;4.78;;
51614;SDS011;37695;52.960;6.188;2022-07-18T04:50:54;8.30;;;5.10;;
51614;SDS011;37695;52.960;6.188;2022-07-18T04:53:20;8.40;;;5.60;;
51614;SDS011;37695;52.960;6.188;2022-07-18T04:55:46;7.15;;;4.65;;
51614;SDS011;37695;52.960;6.188;2022-07-18T04:58:11;7.55;;;4.40;;
51614;SDS011;37695;52.960;6.188;2022-07-18T05:00:37;8.18;;;5.18;;
51614;SDS011;37695;52.960;6.188;2022-07-18T05:03:03;8.00;;;4.47;;
51614;SDS011;37695;52.960;6.188;2022-07-18T05:05:28;8.05;;;4.78;;
51614;SDS011;37695;52.960;6.188;2022-07-18T05:07:54;6.13;;;4.40;;
51614;SDS011;37695;52.960;6.188;2022-07-18T05:10:21;8.00;;;4.95;;
51614;SDS011;37695;52.960;6.188;2022-07-18T05:12:49;7.10;;;4.80;;
51614;SDS011;37695;52.960;6.188;2022-07-18T05:15:17;6.95;;;4.38;;
51614;SDS011;37695;52.960;6.188;2022-07-18T05:17:45;8.27;;;4.53;;
51614;SDS011;37695;52.960;6.188;2022-07-18T05:20:11;6.70;;;4.53;;
51614;SDS011;37695;52.960;6.188;2022-07-18T05:22:39;7.32;;;4.45;;
51614;SDS011;37695;52.960;6.188;2022-07-18T05:25:06;6.75;;;4.35;;
51614;SDS011;37695;52.960;6.188;2022-07-18T05:27:33;6.50;;;3.78;;
51614;SDS011;37695;52.960;6.188;2022-07-18T05:29:58;6.43;;;4.63;;
51614;SDS011;37695;52.960;6.188;2022-07-18T05:32:27;5.53;;;3.90;;
51614;SDS011;37695;52.960;6.188;2022-07-18T05:34:53;7.15;;;3.95;;
51614;SDS011;37695;52.960;6.188;2022-07-18T05:37:19;6.40;;;4.15;;
51614;SDS011;37695;52.960;6.188;2022-07-18T05:39:44;6.30;;;4.05;;
51614;SDS011;37695;52.960;6.188;2022-07-18T05:42:10;7.35;;;4.00;;
51614;SDS011;37695;52.960;6.188;2022-07-18T05:44:35;7.55;;;4.13;;
51614;SDS011;37695;52.960;6.188;2022-07-18T05:47:01;5.25;;;3.45;;
51614;SDS011;37695;52.960;6.188;2022-07-18T05:49:27;6.03;;;3.97;;
51614;SDS011;37695;52.960;6.188;2022-07-18T05:51:52;5.65;;;3.55;;
51614;SDS011;37695;52.960;6.188;2022-07-18T05:54:18;5.72;;;3.55;;
51614;SDS011;37695;52.960;6.188;2022-07-18T05:56:46;5.95;;;3.60;;
51614;SDS011;37695;52.960;6.188;2022-07-18T05:59:13;6.95;;;3.70;;
51614;SDS011;37695;52.960;6.188;2022-07-18T06:01:39;8.85;;;3.53;;
51614;SDS011;37695;52.960;6.188;2022-07-18T06:04:04;7.20;;;3.50;;
51614;SDS011;37695;52.960;6.188;2022-07-18T06:06:30;6.80;;;3.45;;
51614;SDS011;37695;52.960;6.188;2022-07-18T06:08:56;6.50;;;3.55;;
51614;SDS011;37695;52.960;6.188;2022-07-18T06:11:22;5.03;;;2.80;;
51614;SDS011;37695;52.960;6.188;2022-07-18T06:13:47;5.70;;;3.17;;
51614;SDS011;37695;52.960;6.188;2022-07-18T06:16:13;6.00;;;2.90;;
51614;SDS011;37695;52.960;6.188;2022-07-18T06:18:38;5.20;;;3.20;;
51614;SDS011;37695;52.960;6.188;2022-07-18T06:21:04;4.75;;;2.85;;
51614;SDS011;37695;52.960;6.188;2022-07-18T06:23:30;4.65;;;2.95;;
51614;SDS011;37695;52.960;6.188;2022-07-18T06:25:56;8.07;;;3.00;;
51614;SDS011;37695;52.960;6.188;2022-07-18T06:28:22;6.72;;;3.08;;
51614;SDS011;37695;52.960;6.188;2022-07-18T06:30:49;7.32;;;3.17;;
51614;SDS011;37695;52.960;6.188;2022-07-18T06:33:15;7.20;;;2.97;;
51614;SDS011;37695;52.960;6.188;2022-07-18T06:35:40;7.78;;;2.83;;
51614;SDS011;37695;52.960;6.188;2022-07-18T06:38:06;5.30;;;3.13;;
51614;SDS011;37695;52.960;6.188;2022-07-18T06:40:32;6.43;;;2.78;;
51614;SDS011;37695;52.960;6.188;2022-07-18T06:42:58;5.30;;;2.80;;
51614;SDS011;37695;52.960;6.188;2022-07-18T06:45:23;5.82;;;2.85;;
51614;SDS011;37695;52.960;6.188;2022-07-18T06:47:49;5.47;;;2.85;;
51614;SDS011;37695;52.960;6.188;2022-07-18T06:50:14;4.38;;;2.53;;
51614;SDS011;37695;52.960;6.188;2022-07-18T06:52:42;6.43;;;2.95;;
51614;SDS011;37695;52.960;6.188;2022-07-18T06:55:10;5.63;;;2.75;;
51614;SDS011;37695;52.960;6.188;2022-07-18T06:57:37;4.95;;;2.67;;
51614;SDS011;37695;52.960;6.188;2022-07-18T07:00:03;5.22;;;2.80;;
51614;SDS011;37695;52.960;6.188;2022-07-18T07:02:30;4.30;;;2.60;;
51614;SDS011;37695;52.960;6.188;2022-07-18T07:04:55;6.72;;;3.08;;
51614;SDS011;37695;52.960;6.188;2022-07-18T07:07:21;3.92;;;2.45;;
51614;SDS011;37695;52.960;6.188;2022-07-18T07:09:46;4.72;;;2.83;;
51614;SDS011;37695;52.960;6.188;2022-07-18T07:12:12;6.68;;;2.95;;
51614;SDS011;37695;52.960;6.188;2022-07-18T07:14:38;6.05;;;2.75;;
51614;SDS011;37695;52.960;6.188;2022-07-18T07:17:03;4.85;;;2.58;;
51614;SDS011;37695;52.960;6.188;2022-07-18T07:19:29;6.47;;;2.58;;
51614;SDS011;37695;52.960;6.188;2022-07-18T07:21:55;7.95;;;2.50;;
51614;SDS011;37695;52.960;6.188;2022-07-18T07:24:20;4.18;;;2.47;;
51614;SDS011;37695;52.960;6.188;2022-07-18T07:26:47;5.38;;;2.53;;
51614;SDS011;37695;52.960;6.188;2022-07-18T07:29:12;7.28;;;2.70;;
51614;SDS011;37695;52.960;6.188;2022-07-18T07:31:39;6.20;;;2.38;;
51614;SDS011;37695;52.960;6.188;2022-07-18T07:34:08;5.70;;;2.67;;
51614;SDS011;37695;52.960;6.188;2022-07-18T07:36:34;6.25;;;2.50;;
51614;SDS011;37695;52.960;6.188;2022-07-18T07:39:00;6.05;;;2.40;;
51614;SDS011;37695;52.960;6.188;2022-07-18T07:41:26;5.65;;;2.30;;
51614;SDS011;37695;52.960;6.188;2022-07-18T07:43:51;5.10;;;2.17;;
51614;SDS011;37695;52.960;6.188;2022-07-18T07:46:17;5.35;;;2.40;;
51614;SDS011;37695;52.960;6.188;2022-07-18T07:48:43;5.57;;;2.53;;
51614;SDS011;37695;52.960;6.188;2022-07-18T07:51:09;7.38;;;2.78;;
51614;SDS011;37695;52.960;6.188;2022-07-18T07:53:34;5.63;;;2.20;;
51614;SDS011;37695;52.960;6.188;2022-07-18T07:56:00;4.65;;;2.35;;
51614;SDS011;37695;52.960;6.188;2022-07-18T07:58:26;4.15;;;2.17;;
51614;SDS011;37695;52.960;6.188;2022-07-18T08:00:52;3.83;;;1.65;;
51614;SDS011;37695;52.960;6.188;2022-07-18T08:03:17;3.88;;;2.10;;
51614;SDS011;37695;52.960;6.188;2022-07-18T08:05:49;4.65;;;2.08;;
51614;SDS011;37695;52.960;6.188;2022-07-18T08:08:16;3.95;;;1.85;;
51614;SDS011;37695;52.960;6.188;2022-07-18T08:10:43;4.90;;;1.90;;
51614;SDS011;37695;52.960;6.188;2022-07-18T08:13:09;5.50;;;2.13;;
51614;SDS011;37695;52.960;6.188;2022-07-18T08:15:36;6.05;;;2.00;;
51614;SDS011;37695;52.960;6.188;2022-07-18T08:18:02;5.10;;;1.90;;
51614;SDS011;37695;52.960;6.188;2022-07-18T08:20:28;4.47;;;1.98;;
51614;SDS011;37695;52.960;6.188;2022-07-18T08:22:57;3.53;;;1.73;;
51614;SDS011;37695;52.960;6.188;2022-07-18T08:25:31;5.47;;;1.90;;
51614;SDS011;37695;52.960;6.188;2022-07-18T08:27:59;3.28;;;1.80;;
51614;SDS011;37695;52.960;6.188;2022-07-18T08:30:26;3.40;;;1.85;;
51614;SDS011;37695;52.960;6.188;2022-07-18T08:32:52;4.07;;;1.67;;
51614;SDS011;37695;52.960;6.188;2022-07-18T08:35:18;3.88;;;1.50;;
51614;SDS011;37695;52.960;6.188;2022-07-18T08:37:44;4.45;;;2.08;;
51614;SDS011;37695;52.960;6.188;2022-07-18T08:40:10;3.03;;;1.67;;
51614;SDS011;37695;52.960;6.188;2022-07-18T08:42:36;3.42;;;1.80;;
51614;SDS011;37695;52.960;6.188;2022-07-18T08:45:03;4.82;;;1.98;;
51614;SDS011;37695;52.960;6.188;2022-07-18T08:47:29;3.42;;;1.70;;
51614;SDS011;37695;52.960;6.188;2022-07-18T08:49:56;4.00;;;1.70;;
51614;SDS011;37695;52.960;6.188;2022-07-18T08:52:23;5.22;;;2.10;;
51614;SDS011;37695;52.960;6.188;2022-07-18T08:54:49;3.55;;;1.70;;
51614;SDS011;37695;52.960;6.188;2022-07-18T08:57:15;3.55;;;1.48;;
51614;SDS011;37695;52.960;6.188;2022-07-18T08:59:41;3.78;;;1.42;;
51614;SDS011;37695;52.960;6.188;2022-07-18T09:02:07;4.95;;;1.80;;
51614;SDS011;37695;52.960;6.188;2022-07-18T09:07:00;5.72;;;1.52;;
51614;SDS011;37695;52.960;6.188;2022-07-18T09:09:25;4.88;;;1.58;;
51614;SDS011;37695;52.960;6.188;2022-07-18T09:12:12;5.95;;;2.08;;
51614;SDS011;37695;52.960;6.188;2022-07-18T09:14:37;2.47;;;1.33;;
51614;SDS011;37695;52.960;6.188;2022-07-18T09:17:07;5.05;;;1.80;;
51614;SDS011;37695;52.960;6.188;2022-07-18T09:19:36;7.57;;;1.85;;
51614;SDS011;37695;52.960;6.188;2022-07-18T09:22:37;5.05;;;1.73;;
51614;SDS011;37695;52.960;6.188;2022-07-18T09:33:12;9.05;;;2.15;;
51614;SDS011;37695;52.960;6.188;2022-07-18T09:35:52;5.30;;;1.80;;
51614;SDS011;37695;52.960;6.188;2022-07-18T09:38:20;4.15;;;1.80;;
51614;SDS011;37695;52.960;6.188;2022-07-18T09:40:53;3.92;;;1.55;;
51614;SDS011;37695;52.960;6.188;2022-07-18T09:43:21;3.08;;;1.42;;
51614;SDS011;37695;52.960;6.188;2022-07-18T09:45:51;2.67;;;1.60;;
51614;SDS011;37695;52.960;6.188;2022-07-18T09:48:19;12.18;;;2.00;;
51614;SDS011;37695;52.960;6.188;2022-07-18T09:50:54;3.85;;;1.67;;
51614;SDS011;37695;52.960;6.188;2022-07-18T09:53:34;5.70;;;1.77;;
51614;SDS011;37695;52.960;6.188;2022-07-18T09:56:07;7.85;;;1.70;;
51614;SDS011;37695;52.960;6.188;2022-07-18T09:58:36;4.53;;;1.60;;
51614;SDS011;37695;52.960;6.188;2022-07-18T10:01:04;3.55;;;1.60;;
51614;SDS011;37695;52.960;6.188;2022-07-18T10:03:31;5.38;;;1.70;;
51614;SDS011;37695;52.960;6.188;2022-07-18T10:05:58;3.53;;;1.73;;
51614;SDS011;37695;52.960;6.188;2022-07-18T10:08:25;4.28;;;1.75;;
51614;SDS011;37695;52.960;6.188;2022-07-18T10:10:52;3.92;;;1.95;;
51614;SDS011;37695;52.960;6.188;2022-07-18T10:13:19;3.22;;;1.70;;
51614;SDS011;37695;52.960;6.188;2022-07-18T10:15:46;6.78;;;1.90;;
51614;SDS011;37695;52.960;6.188;2022-07-18T10:18:14;4.35;;;2.10;;
51614;SDS011;37695;52.960;6.188;2022-07-18T10:20:46;5.32;;;2.20;;
51614;SDS011;37695;52.960;6.188;2022-07-18T10:23:28;5.65;;;1.80;;
51614;SDS011;37695;52.960;6.188;2022-07-18T10:26:23;3.03;;;1.70;;
51614;SDS011;37695;52.960;6.188;2022-07-18T10:31:32;3.28;;;1.80;;
51614;SDS011;37695;52.960;6.188;2022-07-18T10:36:39;3.65;;;2.08;;
51614;SDS011;37695;52.960;6.188;2022-07-18T10:42:43;5.55;;;1.90;;
51614;SDS011;37695;52.960;6.188;2022-07-18T10:45:20;3.08;;;1.67;;
51614;SDS011;37695;52.960;6.188;2022-07-18T10:48:46;5.22;;;2.15;;
51614;SDS011;37695;52.960;6.188;2022-07-18T10:50:59;4.18;;;2.00;;
51614;SDS011;37695;52.960;6.188;2022-07-18T10:53:46;5.28;;;2.10;;
51614;SDS011;37695;52.960;6.188;2022-07-18T10:59:14;4.00;;;2.08;;
51614;SDS011;37695;52.960;6.188;2022-07-18T11:01:45;4.35;;;2.28;;
51614;SDS011;37695;52.960;6.188;2022-07-18T11:04:30;8.00;;;2.40;;
51614;SDS011;37695;52.960;6.188;2022-07-18T11:09:35;5.38;;;2.03;;
51614;SDS011;37695;52.960;6.188;2022-07-18T11:12:24;2.40;;;1.67;;
51614;SDS011;37695;52.960;6.188;2022-07-18T11:14:58;4.32;;;2.00;;
51614;SDS011;37695;52.960;6.188;2022-07-18T11:22:49;3.20;;;2.00;;
51614;SDS011;37695;52.960;6.188;2022-07-18T11:25:16;4.40;;;2.13;;
51614;SDS011;37695;52.960;6.188;2022-07-18T11:27:43;5.30;;;2.10;;
51614;SDS011;37695;52.960;6.188;2022-07-18T11:30:09;4.15;;;2.22;;
51614;SDS011;37695;52.960;6.188;2022-07-18T11:32:40;6.80;;;2.35;;
51614;SDS011;37695;52.960;6.188;2022-07-18T11:35:06;4.55;;;2.22;;
51614;SDS011;37695;52.960;6.188;2022-07-18T11:37:33;4.20;;;2.00;;
51614;SDS011;37695;52.960;6.188;2022-07-18T11:40:08;3.95;;;2.17;;
51614;SDS011;37695;52.960;6.188;2022-07-18T11:42:39;4.05;;;2.10;;
51614;SDS011;37695;52.960;6.188;2022-07-18T11:45:06;3.25;;;1.73;;
51614;SDS011;37695;52.960;6.188;2022-07-18T11:47:46;3.83;;;1.92;;
51614;SDS011;37695;52.960;6.188;2022-07-18T11:50:13;6.03;;;2.05;;
51614;SDS011;37695;52.960;6.188;2022-07-18T11:52:39;6.82;;;2.13;;
51614;SDS011;37695;52.960;6.188;2022-07-18T11:55:06;4.35;;;2.38;;
51614;SDS011;37695;52.960;6.188;2022-07-18T11:57:32;4.15;;;2.10;;
51614;SDS011;37695;52.960;6.188;2022-07-18T11:59:59;3.70;;;1.85;;
51614;SDS011;37695;52.960;6.188;2022-07-18T12:05:34;3.78;;;2.22;;
51614;SDS011;37695;52.960;6.188;2022-07-18T12:08:23;3.42;;;2.10;;
51614;SDS011;37695;52.960;6.188;2022-07-18T12:11:10;5.18;;;2.28;;
51614;SDS011;37695;52.960;6.188;2022-07-18T12:14:26;3.85;;;2.17;;
51614;SDS011;37695;52.960;6.188;2022-07-18T12:16:46;5.47;;;2.38;;
51614;SDS011;37695;52.960;6.188;2022-07-18T12:19:14;3.28;;;1.90;;
51614;SDS011;37695;52.960;6.188;2022-07-18T12:22:04;2.95;;;1.77;;
51614;SDS011;37695;52.960;6.188;2022-07-18T12:27:51;3.23;;;2.20;;
51614;SDS011;37695;52.960;6.188;2022-07-18T12:35:15;4.97;;;2.15;;
51614;SDS011;37695;52.960;6.188;2022-07-18T12:40:25;4.25;;;2.00;;
51614;SDS011;37695;52.960;6.188;2022-07-18T12:43:04;4.32;;;2.10;;
51614;SDS011;37695;52.960;6.188;2022-07-18T12:45:34;5.72;;;2.60;;
51614;SDS011;37695;52.960;6.188;2022-07-18T12:48:00;6.35;;;2.35;;
51614;SDS011;37695;52.960;6.188;2022-07-18T12:50:26;4.68;;;2.38;;
51614;SDS011;37695;52.960;6.188;2022-07-18T12:52:52;5.10;;;2.70;;
51614;SDS011;37695;52.960;6.188;2022-07-18T12:55:18;3.97;;;2.13;;
51614;SDS011;37695;52.960;6.188;2022-07-18T12:57:44;8.35;;;2.33;;
51614;SDS011;37695;52.960;6.188;2022-07-18T13:00:10;6.28;;;2.05;;
51614;SDS011;37695;52.960;6.188;2022-07-18T13:02:36;5.95;;;2.20;;
51614;SDS011;37695;52.960;6.188;2022-07-18T13:05:02;4.50;;;2.22;;
51614;SDS011;37695;52.960;6.188;2022-07-18T13:07:28;5.22;;;2.30;;
51614;SDS011;37695;52.960;6.188;2022-07-18T13:09:53;5.22;;;2.35;;
51614;SDS011;37695;52.960;6.188;2022-07-18T13:12:19;4.47;;;2.20;;
51614;SDS011;37695;52.960;6.188;2022-07-18T13:14:45;5.65;;;2.20;;
51614;SDS011;37695;52.960;6.188;2022-07-18T13:17:11;3.75;;;2.08;;
51614;SDS011;37695;52.960;6.188;2022-07-18T13:19:36;5.22;;;2.35;;
51614;SDS011;37695;52.960;6.188;2022-07-18T13:22:02;6.90;;;2.50;;
51614;SDS011;37695;52.960;6.188;2022-07-18T13:24:27;4.45;;;2.13;;
51614;SDS011;37695;52.960;6.188;2022-07-18T13:26:53;5.07;;;2.53;;
51614;SDS011;37695;52.960;6.188;2022-07-18T13:29:19;4.55;;;2.28;;
51614;SDS011;37695;52.960;6.188;2022-07-18T13:31:44;3.97;;;2.38;;
51614;SDS011;37695;52.960;6.188;2022-07-18T13:34:10;4.07;;;2.20;;
51614;SDS011;37695;52.960;6.188;2022-07-18T13:36:36;4.40;;;2.35;;
51614;SDS011;37695;52.960;6.188;2022-07-18T13:39:01;4.25;;;2.28;;
51614;SDS011;37695;52.960;6.188;2022-07-18T13:41:28;4.40;;;2.55;;
51614;SDS011;37695;52.960;6.188;2022-07-18T13:43:54;7.47;;;3.03;;
51614;SDS011;37695;52.960;6.188;2022-07-18T13:46:20;5.07;;;2.60;;
51614;SDS011;37695;52.960;6.188;2022-07-18T13:48:46;4.35;;;2.30;;
51614;SDS011;37695;52.960;6.188;2022-07-18T13:51:12;4.85;;;2.45;;
51614;SDS011;37695;52.960;6.188;2022-07-18T13:53:38;5.75;;;2.40;;
51614;SDS011;37695;52.960;6.188;2022-07-18T13:56:04;6.03;;;2.58;;
51614;SDS011;37695;52.960;6.188;2022-07-18T13:58:29;4.15;;;2.60;;
51614;SDS011;37695;52.960;6.188;2022-07-18T14:00:55;6.45;;;2.80;;
51614;SDS011;37695;52.960;6.188;2022-07-18T14:03:20;3.72;;;2.17;;
51614;SDS011;37695;52.960;6.188;2022-07-18T14:05:46;3.90;;;2.47;;
51614;SDS011;37695;52.960;6.188;2022-07-18T14:08:12;5.93;;;2.72;;
51614;SDS011;37695;52.960;6.188;2022-07-18T14:10:38;6.18;;;2.60;;
51614;SDS011;37695;52.960;6.188;2022-07-18T14:13:03;3.65;;;2.30;;
51614;SDS011;37695;52.960;6.188;2022-07-18T14:15:29;5.07;;;2.65;;
51614;SDS011;37695;52.960;6.188;2022-07-18T14:17:54;3.55;;;2.33;;
51614;SDS011;37695;52.960;6.188;2022-07-18T14:20:20;5.00;;;2.78;;
51614;SDS011;37695;52.960;6.188;2022-07-18T14:22:46;7.75;;;2.60;;
51614;SDS011;37695;52.960;6.188;2022-07-18T14:25:15;5.75;;;2.60;;
51614;SDS011;37695;52.960;6.188;2022-07-18T14:27:42;4.68;;;2.28;;
51614;SDS011;37695;52.960;6.188;2022-07-18T14:30:10;4.13;;;2.65;;
51614;SDS011;37695;52.960;6.188;2022-07-18T14:32:37;3.97;;;2.20;;
51614;SDS011;37695;52.960;6.188;2022-07-18T14:35:04;5.03;;;2.55;;
51614;SDS011;37695;52.960;6.188;2022-07-18T14:37:30;5.03;;;2.60;;
51614;SDS011;37695;52.960;6.188;2022-07-18T14:39:55;4.70;;;2.40;;
51614;SDS011;37695;52.960;6.188;2022-07-18T14:42:21;4.85;;;2.65;;
51614;SDS011;37695;52.960;6.188;2022-07-18T14:44:47;4.95;;;2.40;;
51614;SDS011;37695;52.960;6.188;2022-07-18T14:47:13;3.72;;;2.30;;
51614;SDS011;37695;52.960;6.188;2022-07-18T14:49:38;3.63;;;2.00;;
51614;SDS011;37695;52.960;6.188;2022-07-18T14:52:04;4.68;;;2.45;;
51614;SDS011;37695;52.960;6.188;2022-07-18T14:54:29;5.28;;;2.45;;
51614;SDS011;37695;52.960;6.188;2022-07-18T14:56:55;4.32;;;2.40;;
51614;SDS011;37695;52.960;6.188;2022-07-18T14:59:22;3.80;;;2.20;;
51614;SDS011;37695;52.960;6.188;2022-07-18T15:01:48;3.85;;;2.00;;
51614;SDS011;37695;52.960;6.188;2022-07-18T15:04:14;4.32;;;2.42;;
51614;SDS011;37695;52.960;6.188;2022-07-18T15:06:40;5.43;;;2.28;;
51614;SDS011;37695;52.960;6.188;2022-07-18T15:09:06;5.60;;;2.28;;
51614;SDS011;37695;52.960;6.188;2022-07-18T15:11:34;7.68;;;2.88;;
51614;SDS011;37695;52.960;6.188;2022-07-18T15:14:00;5.70;;;2.50;;
51614;SDS011;37695;52.960;6.188;2022-07-18T15:16:26;4.85;;;2.17;;
51614;SDS011;37695;52.960;6.188;2022-07-18T15:18:52;4.18;;;2.20;;
51614;SDS011;37695;52.960;6.188;2022-07-18T15:21:17;4.38;;;2.40;;
51614;SDS011;37695;52.960;6.188;2022-07-18T15:23:43;4.57;;;2.08;;
51614;SDS011;37695;52.960;6.188;2022-07-18T15:26:09;5.47;;;2.22;;
51614;SDS011;37695;52.960;6.188;2022-07-18T15:28:34;3.15;;;2.03;;
51614;SDS011;37695;52.960;6.188;2022-07-18T15:31:00;5.88;;;2.30;;
51614;SDS011;37695;52.960;6.188;2022-07-18T15:33:25;4.25;;;2.30;;